Estación Meteorológica Peña el Pijo (Robertgarden) [ 06/24/18 10:37:42 CEST ]

Fecha Hora Presion(HPa) Temp (°C) Humedad % Rocio (°C) Viento ( m/s) Direccion Lluvia 1Hora(mm) Lluvia 24H(mm) LLuvia Total(mm)
2018-Feb-23 01:01:54 995.300 -2.3 56 -9.9       0.51 83.39
2018-Feb-23 02:03:17 994.900 -2.7 58 -9.9       0.51 83.39
2018-Feb-23 03:01:45 994.600 -3.4 61 -9.9       0.51 83.39
2018-Feb-23 04:01:46 994.200 -3.9 63 -9.9       0.51 83.39
2018-Feb-23 05:01:41 993.700 -4.1 65 -9.8       0.51 83.39
2018-Feb-23 06:01:46 993.900 -4.2 65 -9.8       0.51 83.39
2018-Feb-23 07:01:48 993.700 -4.2 66 -9.6       0.51 83.39
2018-Feb-23 08:01:46 993.900 -5.8 68 -10.8       0.51 83.39
2018-Feb-23 09:01:51 994.000 -3.1 72 -7.5         83.39
2018-Feb-23 10:02:01 994.000 5.3 47 -5.2         83.39
2018-Feb-23 11:01:49 993.700 8.5 29 -8.6         83.39
2018-Feb-23 12:01:51 993.500 10.6 23 -9.9 1.4 ENE     83.39
2018-Feb-23 13:01:43 993.300 9.8 19 -12.9         83.39
2018-Feb-23 14:01:41 992.700 11.0 19 -11.9         83.39
2018-Feb-23 15:01:37 992.400 12.7 20 -9.7         83.39
2018-Feb-23 16:01:43 992.400 10.8 19 -12.1         83.39
2018-Feb-23 17:01:49 992.300 10.3 22 -10.6         83.39
2018-Feb-23 18:01:37 992.600 7.5 28 -10.0         83.39
2018-Feb-23 19:01:47 993.300 5.0 32 -10.4         83.39
2018-Feb-23 20:01:34 993.700 2.1 38 -10.8         83.39
2018-Feb-23 21:01:36 993.900 -0.4 44 -11.2         83.39
2018-Feb-23 22:01:44 994.400 -2.2 51 -11.0         83.39
2018-Feb-23 23:01:45 994.700 -3.1 56 -10.7         83.39

Temperatura Máxima:12°    Temperatura Mínima:-5°
Presión Máxima:995.300 Hpa    Presión Mínima:992.300 Hpa


Volver